METAR AND TAF INFORMATION
METAR FOR DGAA
ADDS - METARS form results

(2044 UTC 21 May 2018)
Data provider http://aviationweather.gov/adds/metars/
 
METAR text: DGAA 212000Z 19009KT 9999 BKN015 27/25 Q1011 NOSIG
Conditions at: DGAA (ACCRA/KOTOKA INT, GH) observed 2000 UTC 21 May 2018
Temperature: 27.0°C (81°F)
Dewpoint: 25.0°C (77°F) [RH = 89%]
Pressure (altimeter): 29.85 inches Hg (1011.0 mb)
Winds: from the S (190 degrees) at 10 MPH (9 knots; 4.7 m/s)
Visibility: 6 or more miles (10+ km)
Ceiling: 1500 feet AGL
Clouds: broken clouds at 1500 feet AGL
Weather: no significant weather observed at this time

Forecast for: DGAA (ACCRA/KOTOKA INT, GH)
Text: TAF DGAA 211700Z 2118/2224 20010KT 9999 SCT016
Forecast period: 1800 UTC 21 May 2018 to 0300 UTC 22 May 2018
Forecast type: FROM: standard forecast or significant change
Winds: from the SSW (200 degrees) at 12 MPH (10 knots; 5.2 m/s)
Visibility: 6 or more miles (10+ km)
Clouds: scattered clouds at 1600 feet AGL
Weather: no significant weather forecast for this period
Forecast for: DGAA (ACCRA/KOTOKA INT, GH)
Text: TAF DGAA 211700Z 2118/2224 20010KT 9999 SCT016
Forecast period: 1800 UTC 21 May 2018 to 0300 UTC 22 May 2018
Forecast type: FROM: standard forecast or significant change
Winds: from the SSW (200 degrees) at 12 MPH (10 knots; 5.2 m/s)
Visibility: 6 or more miles (10+ km)
Clouds: scattered clouds at 1600 feet AGL
Weather: no significant weather forecast for this period
Forecast for: DGAA (ACCRA/KOTOKA INT, GH)
Text: TAF DGAA 211700Z 2118/2224 20010KT 9999 SCT016
Forecast period: 2300 UTC 21 May 2018 to 0300 UTC 22 May 2018
Forecast type: TEMPORARY: The following changes expected for less than half the time period
Visibility: 5 miles (8 km)
Ceiling: 1200 feet AGL
Clouds: broken clouds at 1200 feet AGL
few clouds at 2500 feet AGL
Weather: -TSRA  (light rain associated with thunderstorm(s))
Forecast for: DGAA (ACCRA/KOTOKA INT, GH)
Text: TAF DGAA 211700Z 2118/2224 20010KT 9999 SCT016
Forecast period: 2300 UTC 21 May 2018 to 0300 UTC 22 May 2018
Forecast type: TEMPORARY: The following changes expected for less than half the time period
Visibility: 5 miles (8 km)
Ceiling: 1200 feet AGL
Clouds: broken clouds at 1200 feet AGL
few clouds at 2500 feet AGL
Weather: -TSRA  (light rain associated with thunderstorm(s))
Forecast for: DGAA (ACCRA/KOTOKA INT, GH)
Text: TAF DGAA 211700Z 2118/2224 20010KT 9999 SCT016
Forecast period: 0300 to 1100 UTC 22 May 2018
Forecast type: BECOMING: Conditions expected to become as follows by 0500 UTC 22 May 2018
Winds: from the W (270 degrees) at 12 MPH (10 knots; 5.2 m/s)
Visibility: 6 or more miles (10+ km)
Clouds: few clouds at 1600 feet AGL
Weather: no significant weather forecast for this period
Forecast for: DGAA (ACCRA/KOTOKA INT, GH)
Text: TAF DGAA 211700Z 2118/2224 20010KT 9999 SCT016
Forecast period: 0300 to 1100 UTC 22 May 2018
Forecast type: BECOMING: Conditions expected to become as follows by 0500 UTC 22 May 2018
Winds: from the W (270 degrees) at 12 MPH (10 knots; 5.2 m/s)
Visibility: 6 or more miles (10+ km)
Clouds: few clouds at 1600 feet AGL
Weather: no significant weather forecast for this period
Forecast for: DGAA (ACCRA/KOTOKA INT, GH)
Text: TAF DGAA 211700Z 2118/2224 20010KT 9999 SCT016
Forecast period: 1100 UTC 22 May 2018 to 0000 UTC 23 May 2018
Forecast type: BECOMING: Conditions expected to become as follows by 1300 UTC 22 May 2018
Winds: from the S (190 degrees) at 17 MPH (15 knots; 7.8 m/s)
Visibility: 6 or more miles (10+ km)
Clouds: few clouds at 1600 feet AGL
Weather: no significant weather forecast for this period
Forecast for: DGAA (ACCRA/KOTOKA INT, GH)
Text: TAF DGAA 211700Z 2118/2224 20010KT 9999 SCT016
Forecast period: 1100 UTC 22 May 2018 to 0000 UTC 23 May 2018
Forecast type: BECOMING: Conditions expected to become as follows by 1300 UTC 22 May 2018
Winds: from the S (190 degrees) at 17 MPH (15 knots; 7.8 m/s)
Visibility: 6 or more miles (10+ km)
Clouds: few clouds at 1600 feet AGL
Weather: no significant weather forecast for this period

 AIRPORT MAP

 RUNWAY INFORMATION
Runway 03 Runway length 11165 ft Runway width 200 ft
Runway elevation 177 ft Runway displaced threshold 0 ft Runway heading 22
Runway 21 Runway length 11165 ft Runway width 200 ft
Runway elevation 197 ft Runway displaced threshold 1349 ft Runway heading 202

 AIRPORT FREQUENCIES
Type APP Name ACCRA APP Frequency 119.5 MHZ
Type GND Name ACCRA GND Frequency 121.9 MHZ
Type TWR Name ACCRA TWR Frequency 119.1 MHZ

 AIRPORT NEAR NAVIGATION AIDS
Type NDB Name Accra Frequency 409 KHZ
Type VOR-DME Name Accra Frequency 113100 KHZ



Powered by Virtual Airlines Manager [v2.6.2]